sensor_id;sensor_type;location;lat;lon;timestamp;pressure;altitude;pressure_sealevel;temperature;humidity
44131;BME280;29792;48.726;9.248;2023-02-24T00:00:12;96438.19;;;9.68;100.00
44131;BME280;29792;48.726;9.248;2023-02-24T00:03:01;96439.66;;;9.70;100.00
44131;BME280;29792;48.726;9.248;2023-02-24T00:05:32;96441.28;;;9.71;100.00
44131;BME280;29792;48.726;9.248;2023-02-24T00:07:58;96436.19;;;9.71;100.00
44131;BME280;29792;48.726;9.248;2023-02-24T00:10:23;96437.00;;;9.72;100.00
44131;BME280;29792;48.726;9.248;2023-02-24T00:12:48;96430.25;;;9.71;100.00
44131;BME280;29792;48.726;9.248;2023-02-24T00:15:14;96431.06;;;9.71;100.00
44131;BME280;29792;48.726;9.248;2023-02-24T00:17:41;96427.69;;;9.71;100.00
44131;BME280;29792;48.726;9.248;2023-02-24T00:20:08;96424.19;;;9.72;100.00
44131;BME280;29792;48.726;9.248;2023-02-24T00:22:37;96425.00;;;9.72;100.00
44131;BME280;29792;48.726;9.248;2023-02-24T00:25:02;96432.69;;;9.72;100.00
44131;BME280;29792;48.726;9.248;2023-02-24T00:27:28;96435.09;;;9.74;100.00
44131;BME280;29792;48.726;9.248;2023-02-24T00:29:53;96427.56;;;9.72;100.00
44131;BME280;29792;48.726;9.248;2023-02-24T00:32:18;96427.56;;;9.72;100.00
44131;BME280;29792;48.726;9.248;2023-02-24T00:34:43;96420.84;;;9.71;100.00
44131;BME280;29792;48.726;9.248;2023-02-24T00:37:10;96418.28;;;9.71;100.00
44131;BME280;29792;48.726;9.248;2023-02-24T00:39:36;96418.41;;;9.70;100.00
44131;BME280;29792;48.726;9.248;2023-02-24T00:42:05;96416.66;;;9.70;100.00
44131;BME280;29792;48.726;9.248;2023-02-24T00:44:35;96415.72;;;9.71;100.00
44131;BME280;29792;48.726;9.248;2023-02-24T00:47:01;96418.28;;;9.71;100.00
44131;BME280;29792;48.726;9.248;2023-02-24T00:49:29;96412.22;;;9.72;100.00
44131;BME280;29792;48.726;9.248;2023-02-24T00:51:54;96408.16;;;9.70;100.00
44131;BME280;29792;48.726;9.248;2023-02-24T00:54:20;96411.78;;;9.67;100.00
44131;BME280;29792;48.726;9.248;2023-02-24T00:56:47;96417.72;;;9.68;100.00
44131;BME280;29792;48.726;9.248;2023-02-24T00:59:16;96413.53;;;9.67;100.00
44131;BME280;29792;48.726;9.248;2023-02-24T01:01:43;96415.03;;;9.69;100.00
44131;BME280;29792;48.726;9.248;2023-02-24T01:04:14;96403.88;;;9.70;100.00
44131;BME280;29792;48.726;9.248;2023-02-24T01:06:42;96410.31;;;9.74;100.00
44131;BME280;29792;48.726;9.248;2023-02-24T01:09:11;96406.69;;;9.77;100.00
44131;BME280;29792;48.726;9.248;2023-02-24T01:11:37;96402.25;;;9.79;100.00
44131;BME280;29792;48.726;9.248;2023-02-24T01:14:24;96396.06;;;9.81;100.00
44131;BME280;29792;48.726;9.248;2023-02-24T01:16:51;96396.88;;;9.82;100.00
44131;BME280;29792;48.726;9.248;2023-02-24T01:19:19;96391.75;;;9.82;100.00
44131;BME280;29792;48.726;9.248;2023-02-24T01:21:45;96388.38;;;9.81;100.00
44131;BME280;29792;48.726;9.248;2023-02-24T01:24:11;96380.06;;;9.79;100.00
44131;BME280;29792;48.726;9.248;2023-02-24T01:26:37;96390.41;;;9.78;100.00
44131;BME280;29792;48.726;9.248;2023-02-24T01:29:02;96393.22;;;9.75;100.00
44131;BME280;29792;48.726;9.248;2023-02-24T01:31:37;96382.47;;;9.71;100.00
44131;BME280;29792;48.726;9.248;2023-02-24T01:34:03;96384.09;;;9.72;100.00
44131;BME280;29792;48.726;9.248;2023-02-24T01:36:31;96380.72;;;9.72;100.00
44131;BME280;29792;48.726;9.248;2023-02-24T01:38:58;96378.28;;;9.70;100.00
44131;BME280;29792;48.726;9.248;2023-02-24T01:41:24;96374.13;;;9.69;100.00
44131;BME280;29792;48.726;9.248;2023-02-24T01:44:03;96376.00;;;9.67;100.00
44131;BME280;29792;48.726;9.248;2023-02-24T01:46:36;96374.38;;;9.66;100.00
44131;BME280;29792;48.726;9.248;2023-02-24T01:49:08;96373.16;;;9.61;100.00
44131;BME280;29792;48.726;9.248;2023-02-24T01:51:38;96365.63;;;9.59;100.00
44131;BME280;29792;48.726;9.248;2023-02-24T01:54:08;96371.41;;;9.61;100.00
44131;BME280;29792;48.726;9.248;2023-02-24T01:56:36;96361.31;;;9.60;100.00
44131;BME280;29792;48.726;9.248;2023-02-24T01:59:03;96355.00;;;9.54;100.00
44131;BME280;29792;48.726;9.248;2023-02-24T02:01:29;96360.34;;;9.51;100.00
44131;BME280;29792;48.726;9.248;2023-02-24T02:04:00;96360.66;;;9.48;100.00
44131;BME280;29792;48.726;9.248;2023-02-24T02:06:28;96369.25;;;9.47;100.00
44131;BME280;29792;48.726;9.248;2023-02-24T02:08:53;96364.00;;;9.48;100.00
44131;BME280;29792;48.726;9.248;2023-02-24T02:11:19;96360.66;;;9.48;100.00
44131;BME280;29792;48.726;9.248;2023-02-24T02:13:45;96370.19;;;9.46;100.00
44131;BME280;29792;48.726;9.248;2023-02-24T02:24:43;96356.97;;;9.41;100.00
44131;BME280;29792;48.726;9.248;2023-02-24T02:27:42;96349.59;;;9.38;100.00
44131;BME280;29792;48.726;9.248;2023-02-24T02:36:21;96345.53;;;9.35;100.00
44131;BME280;29792;48.726;9.248;2023-02-24T02:38:54;96338.69;;;9.36;100.00
44131;BME280;29792;48.726;9.248;2023-02-24T02:44:08;96339.63;;;9.35;100.00
44131;BME280;29792;48.726;9.248;2023-02-24T02:46:41;96340.56;;;9.34;100.00
44131;BME280;29792;48.726;9.248;2023-02-24T02:49:20;96333.16;;;9.31;100.00
44131;BME280;29792;48.726;9.248;2023-02-24T02:51:50;96330.88;;;9.28;100.00
44131;BME280;29792;48.726;9.248;2023-02-24T02:54:25;96327.91;;;9.23;100.00
44131;BME280;29792;48.726;9.248;2023-02-24T02:57:01;96325.59;;;9.19;100.00
44131;BME280;29792;48.726;9.248;2023-02-24T02:59:31;96318.06;;;9.18;100.00
44131;BME280;29792;48.726;9.248;2023-02-24T03:02:00;96312.13;;;9.17;100.00
44131;BME280;29792;48.726;9.248;2023-02-24T03:04:38;96312.13;;;9.17;100.00
44131;BME280;29792;48.726;9.248;2023-02-24T03:07:07;96310.69;;;9.15;100.00
44131;BME280;29792;48.726;9.248;2023-02-24T03:09:37;96314.97;;;9.14;100.00
44131;BME280;29792;48.726;9.248;2023-02-24T03:12:10;96315.91;;;9.13;100.00
44131;BME280;29792;48.726;9.248;2023-02-24T03:14:42;96303.94;;;9.14;100.00
44131;BME280;29792;48.726;9.248;2023-02-24T03:17:13;96302.19;;;9.14;100.00
44131;BME280;29792;48.726;9.248;2023-02-24T03:19:40;96303.81;;;9.15;100.00
44131;BME280;29792;48.726;9.248;2023-02-24T03:22:09;96303.81;;;9.15;100.00
44131;BME280;29792;48.726;9.248;2023-02-24T03:24:38;96302.19;;;9.14;100.00
44131;BME280;29792;48.726;9.248;2023-02-24T03:27:27;96298.03;;;9.13;100.00
44131;BME280;29792;48.726;9.248;2023-02-24T03:29:58;96295.34;;;9.15;100.00
44131;BME280;29792;48.726;9.248;2023-02-24T03:32:30;96288.50;;;9.15;100.00
44131;BME280;29792;48.726;9.248;2023-02-24T03:35:10;96283.38;;;9.15;100.00
44131;BME280;29792;48.726;9.248;2023-02-24T03:37:39;96287.28;;;9.19;100.00
44131;BME280;29792;48.726;9.248;2023-02-24T03:40:07;96286.47;;;9.19;100.00
44131;BME280;29792;48.726;9.248;2023-02-24T03:42:51;96289.81;;;9.19;100.00
44131;BME280;29792;48.726;9.248;2023-02-24T03:45:20;96295.63;;;9.22;100.00
44131;BME280;29792;48.726;9.248;2023-02-24T03:47:47;96288.88;;;9.21;100.00
44131;BME280;29792;48.726;9.248;2023-02-24T03:50:18;96295.63;;;9.22;100.00
44131;BME280;29792;48.726;9.248;2023-02-24T03:52:53;96292.38;;;9.19;100.00
44131;BME280;29792;48.726;9.248;2023-02-24T03:55:46;96283.09;;;9.18;100.00
44131;BME280;29792;48.726;9.248;2023-02-24T03:59:00;96290.63;;;9.20;100.00
44131;BME280;29792;48.726;9.248;2023-02-24T04:01:45;96283.78;;;9.21;100.00
44131;BME280;29792;48.726;9.248;2023-02-24T04:04:32;96279.59;;;9.19;100.00
44131;BME280;29792;48.726;9.248;2023-02-24T04:07:17;96280.28;;;9.22;100.00
44131;BME280;29792;48.726;9.248;2023-02-24T04:10:06;96285.41;;;9.22;100.00
44131;BME280;29792;48.726;9.248;2023-02-24T04:12:53;96287.03;;;9.23;100.00
44131;BME280;29792;48.726;9.248;2023-02-24T04:15:30;96294.94;;;9.19;100.00
44131;BME280;29792;48.726;9.248;2023-02-24T04:18:04;96288.22;;;9.18;100.00
44131;BME280;29792;48.726;9.248;2023-02-24T04:20:33;96275.72;;;9.15;100.00
44131;BME280;29792;48.726;9.248;2023-02-24T04:23:05;96274.09;;;9.14;100.00
44131;BME280;29792;48.726;9.248;2023-02-24T04:25:33;96275.16;;;9.12;100.00
44131;BME280;29792;48.726;9.248;2023-02-24T04:28:00;96277.72;;;9.12;100.00
44131;BME280;29792;48.726;9.248;2023-02-24T04:30:30;96275.97;;;9.12;100.00
44131;BME280;29792;48.726;9.248;2023-02-24T04:32:57;96268.19;;;9.14;100.00
44131;BME280;29792;48.726;9.248;2023-02-24T04:35:24;96273.28;;;9.14;100.00
44131;BME280;29792;48.726;9.248;2023-02-24T04:37:51;96275.84;;;9.14;100.00
44131;BME280;29792;48.726;9.248;2023-02-24T04:40:18;96278.53;;;9.12;100.00
44131;BME280;29792;48.726;9.248;2023-02-24T04:42:47;96272.47;;;9.13;100.00
44131;BME280;29792;48.726;9.248;2023-02-24T04:45:18;96268.31;;;9.12;100.00
44131;BME280;29792;48.726;9.248;2023-02-24T04:47:45;96261.44;;;9.13;100.00
44131;BME280;29792;48.726;9.248;2023-02-24T04:50:14;96261.31;;;9.14;100.00
44131;BME280;29792;48.726;9.248;2023-02-24T04:52:50;96261.97;;;9.16;100.00
44131;BME280;29792;48.726;9.248;2023-02-24T04:55:16;96258.63;;;9.16;100.00
44131;BME280;29792;48.726;9.248;2023-02-24T04:57:42;96248.25;;;9.17;100.00
44131;BME280;29792;48.726;9.248;2023-02-24T05:00:12;96256.09;;;9.16;100.00
44131;BME280;29792;48.726;9.248;2023-02-24T05:02:45;96251.22;;;9.13;100.00
44131;BME280;29792;48.726;9.248;2023-02-24T05:05:12;96247.19;;;9.10;100.00
44131;BME280;29792;48.726;9.248;2023-02-24T05:07:37;96244.91;;;9.07;100.00
44131;BME280;29792;48.726;9.248;2023-02-24T05:10:03;96242.34;;;9.07;100.00
44131;BME280;29792;48.726;9.248;2023-02-24T05:12:30;96236.69;;;9.04;100.00
44131;BME280;29792;48.726;9.248;2023-02-24T05:14:55;96234.13;;;9.04;100.00
44131;BME280;29792;48.726;9.248;2023-02-24T05:17:25;96229.97;;;9.03;100.00
44131;BME280;29792;48.726;9.248;2023-02-24T05:19:50;96231.72;;;9.02;100.00
44131;BME280;29792;48.726;9.248;2023-02-24T05:22:34;96226.72;;;9.01;100.00
44131;BME280;29792;48.726;9.248;2023-02-24T05:25:00;96226.06;;;8.99;100.00
44131;BME280;29792;48.726;9.248;2023-02-24T05:27:25;96228.88;;;8.96;100.00
44131;BME280;29792;48.726;9.248;2023-02-24T05:29:52;96224.72;;;8.95;100.00
44131;BME280;29792;48.726;9.248;2023-02-24T05:32:19;96217.03;;;8.95;100.00
44131;BME280;29792;48.726;9.248;2023-02-24T05:34:46;96214.38;;;8.96;100.00
44131;BME280;29792;48.726;9.248;2023-02-24T05:37:11;96212.50;;;8.98;100.00
44131;BME280;29792;48.726;9.248;2023-02-24T05:39:40;96202.16;;;9.00;100.00
44131;BME280;29792;48.726;9.248;2023-02-24T05:42:05;96203.59;;;9.02;100.00
44131;BME280;29792;48.726;9.248;2023-02-24T05:44:31;96209.41;;;9.04;100.00
44131;BME280;29792;48.726;9.248;2023-02-24T05:46:59;96201.34;;;8.99;100.00
44131;BME280;29792;48.726;9.248;2023-02-24T05:49:30;96199.03;;;8.96;100.00
44131;BME280;29792;48.726;9.248;2023-02-24T05:52:01;96195.56;;;8.97;100.00
44131;BME280;29792;48.726;9.248;2023-02-24T05:54:36;96192.88;;;8.99;100.00
44131;BME280;29792;48.726;9.248;2023-02-24T05:57:08;96185.03;;;9.00;100.00
44131;BME280;29792;48.726;9.248;2023-02-24T05:59:35;96179.28;;;8.98;100.00
44131;BME280;29792;48.726;9.248;2023-02-24T06:02:03;96182.66;;;8.99;100.00
44131;BME280;29792;48.726;9.248;2023-02-24T06:04:34;96181.84;;;8.98;100.00
44131;BME280;29792;48.726;9.248;2023-02-24T06:07:12;96178.59;;;8.96;100.00
44131;BME280;29792;48.726;9.248;2023-02-24T06:09:38;96177.25;;;8.92;100.00
44131;BME280;29792;48.726;9.248;2023-02-24T06:12:07;96180.59;;;8.93;100.00
44131;BME280;29792;48.726;9.248;2023-02-24T06:14:32;96184.78;;;8.94;100.00
44131;BME280;29792;48.726;9.248;2023-02-24T06:16:58;96181.16;;;8.96;100.00
44131;BME280;29792;48.726;9.248;2023-02-24T06:19:26;96180.47;;;8.94;100.00
44131;BME280;29792;48.726;9.248;2023-02-24T06:21:51;96172.81;;;8.94;100.00
44131;BME280;29792;48.726;9.248;2023-02-24T06:24:18;96177.94;;;8.94;100.00
44131;BME280;29792;48.726;9.248;2023-02-24T06:26:44;96171.63;;;8.89;100.00
44131;BME280;29792;48.726;9.248;2023-02-24T06:29:11;96174.28;;;8.87;100.00
44131;BME280;29792;48.726;9.248;2023-02-24T06:31:38;96182.63;;;8.89;100.00
44131;BME280;29792;48.726;9.248;2023-02-24T06:34:03;96177.94;;;8.94;100.00
44131;BME280;29792;48.726;9.248;2023-02-24T06:36:28;96171.88;;;8.95;100.00
44131;BME280;29792;48.726;9.248;2023-02-24T06:38:53;96171.63;;;8.98;100.00
44131;BME280;29792;48.726;9.248;2023-02-24T06:41:19;96170.41;;;9.02;100.00
44131;BME280;29792;48.726;9.248;2023-02-24T06:43:45;96167.72;;;9.04;100.00
44131;BME280;29792;48.726;9.248;2023-02-24T06:46:13;96171.22;;;9.03;100.00
44131;BME280;29792;48.726;9.248;2023-02-24T06:48:39;96168.41;;;9.06;100.00
44131;BME280;29792;48.726;9.248;2023-02-24T06:51:07;96169.22;;;9.06;100.00
44131;BME280;29792;48.726;9.248;2023-02-24T06:53:35;96166.38;;;9.09;100.00
44131;BME280;29792;48.726;9.248;2023-02-24T06:56:07;96159.63;;;9.08;100.00
44131;BME280;29792;48.726;9.248;2023-02-24T06:58:41;96165.44;;;9.10;100.00
44131;BME280;29792;48.726;9.248;2023-02-24T07:01:16;96168.13;;;9.09;100.00
44131;BME280;29792;48.726;9.248;2023-02-24T07:03:42;96174.84;;;9.10;100.00
44131;BME280;29792;48.726;9.248;2023-02-24T07:06:34;96176.75;;;9.08;100.00
44131;BME280;29792;48.726;9.248;2023-02-24T07:09:02;96159.00;;;9.06;100.00
44131;BME280;29792;48.726;9.248;2023-02-24T07:11:30;96163.16;;;9.07;100.00
44131;BME280;29792;48.726;9.248;2023-02-24T07:13:57;96161.25;;;9.09;100.00
44131;BME280;29792;48.726;9.248;2023-02-24T07:16:23;96160.31;;;9.10;100.00
44131;BME280;29792;48.726;9.248;2023-02-24T07:18:56;96153.22;;;9.14;100.00
44131;BME280;29792;48.726;9.248;2023-02-24T07:21:22;96155.47;;;9.17;100.00
44131;BME280;29792;48.726;9.248;2023-02-24T07:23:48;96156.44;;;9.16;100.00
44131;BME280;29792;48.726;9.248;2023-02-24T07:26:20;96149.28;;;9.19;100.00
44131;BME280;29792;48.726;9.248;2023-02-24T07:28:48;96142.56;;;9.18;100.00
44131;BME280;29792;48.726;9.248;2023-02-24T07:31:16;96143.13;;;9.22;100.00
44131;BME280;29792;48.726;9.248;2023-02-24T07:33:43;96147.13;;;9.25;100.00
44131;BME280;29792;48.726;9.248;2023-02-24T07:36:11;96143.63;;;9.26;100.00
44131;BME280;29792;48.726;9.248;2023-02-24T07:38:40;96138.53;;;9.26;100.00
44131;BME280;29792;48.726;9.248;2023-02-24T07:41:07;96139.19;;;9.28;100.00
44131;BME280;29792;48.726;9.248;2023-02-24T07:43:37;96137.44;;;9.28;100.00
44131;BME280;29792;48.726;9.248;2023-02-24T07:46:08;96143.38;;;9.29;100.00
44131;BME280;29792;48.726;9.248;2023-02-24T07:48:34;96139.06;;;9.29;100.00
44131;BME280;29792;48.726;9.248;2023-02-24T07:51:05;96141.50;;;9.31;100.00
44131;BME280;29792;48.726;9.248;2023-02-24T07:53:30;96141.50;;;9.31;100.00
44131;BME280;29792;48.726;9.248;2023-02-24T07:55:55;96142.44;;;9.30;100.00
44131;BME280;29792;48.726;9.248;2023-02-24T07:58:21;96143.91;;;9.32;100.00
44131;BME280;29792;48.726;9.248;2023-02-24T08:00:47;96138.13;;;9.30;100.00
44131;BME280;29792;48.726;9.248;2023-02-24T08:03:34;96131.28;;;9.31;100.00
44131;BME280;29792;48.726;9.248;2023-02-24T08:06:02;96126.97;;;9.31;100.00
44131;BME280;29792;48.726;9.248;2023-02-24T08:08:40;96133.03;;;9.30;100.00
44131;BME280;29792;48.726;9.248;2023-02-24T08:11:30;96129.25;;;9.25;100.00
44131;BME280;29792;48.726;9.248;2023-02-24T08:14:07;96132.75;;;9.24;100.00
44131;BME280;29792;48.726;9.248;2023-02-24T08:16:38;96134.34;;;9.25;100.00
44131;BME280;29792;48.726;9.248;2023-02-24T08:19:09;96131.66;;;9.16;100.00
44131;BME280;29792;48.726;9.248;2023-02-24T08:21:38;96127.53;;;9.15;100.00
44131;BME280;29792;48.726;9.248;2023-02-24T08:24:12;96126.16;;;9.11;100.00
44131;BME280;29792;48.726;9.248;2023-02-24T08:26:47;96127.25;;;9.09;100.00
44131;BME280;29792;48.726;9.248;2023-02-24T08:29:29;96125.09;;;9.04;100.00
44131;BME280;29792;48.726;9.248;2023-02-24T08:31:55;96118.25;;;9.05;100.00
44131;BME280;29792;48.726;9.248;2023-02-24T08:34:21;96118.78;;;8.99;100.00
44131;BME280;29792;48.726;9.248;2023-02-24T08:36:46;96115.16;;;9.01;100.00
44131;BME280;29792;48.726;9.248;2023-02-24T08:39:19;96115.16;;;9.01;100.00
44131;BME280;29792;48.726;9.248;2023-02-24T08:41:46;96116.88;;;9.01;100.00
44131;BME280;29792;48.726;9.248;2023-02-24T08:44:17;96108.41;;;9.00;100.00
44131;BME280;29792;48.726;9.248;2023-02-24T08:46:46;96108.84;;;9.05;100.00
44131;BME280;29792;48.726;9.248;2023-02-24T08:49:14;96106.28;;;9.15;100.00
44131;BME280;29792;48.726;9.248;2023-02-24T08:51:42;96106.53;;;9.22;100.00
44131;BME280;29792;48.726;9.248;2023-02-24T08:54:27;96099.38;;;9.25;100.00
44131;BME280;29792;48.726;9.248;2023-02-24T08:56:56;96095.19;;;9.34;100.00
44131;BME280;29792;48.726;9.248;2023-02-24T08:59:33;96091.69;;;9.44;100.00
44131;BME280;29792;48.726;9.248;2023-02-24T09:02:10;96081.31;;;9.55;100.00
44131;BME280;29792;48.726;9.248;2023-02-24T09:04:56;96081.22;;;9.75;100.00
44131;BME280;29792;48.726;9.248;2023-02-24T09:07:27;96081.72;;;9.88;100.00
44131;BME280;29792;48.726;9.248;2023-02-24T09:09:54;96084.53;;;9.94;100.00
44131;BME280;29792;48.726;9.248;2023-02-24T09:12:22;96082.47;;;9.98;100.00
44131;BME280;29792;48.726;9.248;2023-02-24T09:14:56;96084.72;;;10.11;100.00
44131;BME280;29792;48.726;9.248;2023-02-24T09:17:24;96075.34;;;10.29;100.00
44131;BME280;29792;48.726;9.248;2023-02-24T09:20:22;96076.41;;;10.54;100.00
44131;BME280;29792;48.726;9.248;2023-02-24T09:23:06;96076.84;;;10.67;100.00
44131;BME280;29792;48.726;9.248;2023-02-24T09:25:35;96069.97;;;10.85;100.00
44131;BME280;29792;48.726;9.248;2023-02-24T09:28:21;96069.41;;;10.99;100.00
44131;BME280;29792;48.726;9.248;2023-02-24T09:30:52;96065.91;;;11.00;100.00
44131;BME280;29792;48.726;9.248;2023-02-24T09:33:29;96062.81;;;10.97;100.00
44131;BME280;29792;48.726;9.248;2023-02-24T09:36:05;96060.41;;;10.95;100.00
44131;BME280;29792;48.726;9.248;2023-02-24T09:44:41;96058.03;;;10.76;100.00
44131;BME280;29792;48.726;9.248;2023-02-24T09:47:19;96054.28;;;10.70;100.00
44131;BME280;29792;48.726;9.248;2023-02-24T09:50:16;96047.72;;;10.68;100.00
44131;BME280;29792;48.726;9.248;2023-02-24T09:52:50;96044.34;;;10.67;100.00
44131;BME280;29792;48.726;9.248;2023-02-24T09:55:22;96043.75;;;10.74;100.00
44131;BME280;29792;48.726;9.248;2023-02-24T09:58:06;96046.03;;;10.77;100.00
44131;BME280;29792;48.726;9.248;2023-02-24T10:00:59;96046.53;;;10.80;100.00
44131;BME280;29792;48.726;9.248;2023-02-24T10:03:48;96041.53;;;10.79;100.00
44131;BME280;29792;48.726;9.248;2023-02-24T10:06:25;96043.09;;;10.71;100.00
44131;BME280;29792;48.726;9.248;2023-02-24T10:09:13;96043.31;;;10.60;100.00
44131;BME280;29792;48.726;9.248;2023-02-24T10:11:50;96043.31;;;10.60;100.00
44131;BME280;29792;48.726;9.248;2023-02-24T10:14:33;96038.69;;;10.64;100.00
44131;BME280;29792;48.726;9.248;2023-02-24T10:17:12;96043.41;;;10.68;100.00
44131;BME280;29792;48.726;9.248;2023-02-24T10:19:59;96037.97;;;10.71;100.00
44131;BME280;29792;48.726;9.248;2023-02-24T10:22:45;96035.69;;;10.86;100.00
44131;BME280;29792;48.726;9.248;2023-02-24T10:25:39;96027.75;;;10.97;100.00
44131;BME280;29792;48.726;9.248;2023-02-24T10:31:05;96022.94;;;11.20;100.00
44131;BME280;29792;48.726;9.248;2023-02-24T10:33:45;96015.63;;;11.25;100.00
44131;BME280;29792;48.726;9.248;2023-02-24T10:36:17;96013.72;;;11.35;100.00
44131;BME280;29792;48.726;9.248;2023-02-24T10:38:43;96012.78;;;11.36;100.00
44131;BME280;29792;48.726;9.248;2023-02-24T10:41:15;96019.84;;;11.34;98.67
44131;BME280;29792;48.726;9.248;2023-02-24T10:43:52;96015.53;;;11.35;98.32
44131;BME280;29792;48.726;9.248;2023-02-24T10:46:28;96014.06;;;11.32;97.18
44131;BME280;29792;48.726;9.248;2023-02-24T10:48:59;96009.22;;;11.29;97.30
44131;BME280;29792;48.726;9.248;2023-02-24T10:51:30;96007.94;;;11.25;96.30
44131;BME280;29792;48.726;9.248;2023-02-24T10:54:10;96009.38;;;11.28;97.07
44131;BME280;29792;48.726;9.248;2023-02-24T10:56:55;96009.38;;;11.28;98.32
44131;BME280;29792;48.726;9.248;2023-02-24T10:59:47;96000.72;;;11.29;98.94
44131;BME280;29792;48.726;9.248;2023-02-24T11:02:25;96000.09;;;11.27;99.58
44131;BME280;29792;48.726;9.248;2023-02-24T11:04:55;95995.09;;;11.25;100.00
44131;BME280;29792;48.726;9.248;2023-02-24T11:07:27;95993.78;;;11.21;100.00
44131;BME280;29792;48.726;9.248;2023-02-24T11:10:16;95979.97;;;11.14;100.00
44131;BME280;29792;48.726;9.248;2023-02-24T11:12:51;95982.84;;;11.11;100.00
44131;BME280;29792;48.726;9.248;2023-02-24T11:15:47;95975.47;;;11.08;100.00
44131;BME280;29792;48.726;9.248;2023-02-24T11:18:32;95975.47;;;11.08;100.00
44131;BME280;29792;48.726;9.248;2023-02-24T11:21:00;95968.72;;;11.07;100.00
44131;BME280;29792;48.726;9.248;2023-02-24T11:23:33;95962.94;;;11.05;100.00
44131;BME280;29792;48.726;9.248;2023-02-24T11:26:01;95956.56;;;11.09;100.00
44131;BME280;29792;48.726;9.248;2023-02-24T11:28:58;95954.00;;;11.09;100.00
44131;BME280;29792;48.726;9.248;2023-02-24T11:34:18;95944.66;;;11.00;99.56
44131;BME280;29792;48.726;9.248;2023-02-24T11:36:49;95952.78;;;10.95;99.20
44131;BME280;29792;48.726;9.248;2023-02-24T11:41:56;95942.81;;;10.84;99.28
44131;BME280;29792;48.726;9.248;2023-02-24T11:44:33;95933.50;;;10.83;100.00
44131;BME280;29792;48.726;9.248;2023-02-24T11:47:06;95930.00;;;10.84;99.58
44131;BME280;29792;48.726;9.248;2023-02-24T11:49:40;95927.59;;;10.83;99.67
44131;BME280;29792;48.726;9.248;2023-02-24T11:52:12;95915.72;;;10.82;100.00
44131;BME280;29792;48.726;9.248;2023-02-24T11:54:43;95917.34;;;10.83;99.77
44131;BME280;29792;48.726;9.248;2023-02-24T11:57:17;95905.34;;;10.83;100.00
44131;BME280;29792;48.726;9.248;2023-02-24T11:59:49;95893.34;;;10.84;99.80
44131;BME280;29792;48.726;9.248;2023-02-24T12:05:38;95878.03;;;11.00;100.00
44131;BME280;29792;48.726;9.248;2023-02-24T12:11:03;95861.84;;;11.33;100.00
44131;BME280;29792;48.726;9.248;2023-02-24T12:13:55;95850.19;;;11.63;100.00
44131;BME280;29792;48.726;9.248;2023-02-24T12:16:28;95852.97;;;11.94;99.27
44131;BME280;29792;48.726;9.248;2023-02-24T12:19:03;95851.06;;;12.20;97.69
44131;BME280;29792;48.726;9.248;2023-02-24T12:21:35;95852.31;;;12.49;97.04
44131;BME280;29792;48.726;9.248;2023-02-24T12:24:02;95841.22;;;12.65;93.68
44131;BME280;29792;48.726;9.248;2023-02-24T12:26:57;95847.63;;;12.69;92.52
44131;BME280;29792;48.726;9.248;2023-02-24T12:29:40;95842.00;;;12.57;90.65
44131;BME280;29792;48.726;9.248;2023-02-24T12:32:40;95834.66;;;12.46;90.19
44131;BME280;29792;48.726;9.248;2023-02-24T12:35:21;95833.06;;;12.37;89.48
44131;BME280;29792;48.726;9.248;2023-02-24T12:38:04;95822.00;;;12.36;89.18
44131;BME280;29792;48.726;9.248;2023-02-24T12:40:54;95815.72;;;12.55;89.25
44131;BME280;29792;48.726;9.248;2023-02-24T12:43:33;95800.09;;;12.73;87.83
44131;BME280;29792;48.726;9.248;2023-02-24T12:46:06;95812.41;;;12.85;87.33
44131;BME280;29792;48.726;9.248;2023-02-24T12:49:06;95802.59;;;12.89;85.52
44131;BME280;29792;48.726;9.248;2023-02-24T12:52:11;95810.19;;;12.74;83.91
44131;BME280;29792;48.726;9.248;2023-02-24T12:54:59;95804.44;;;12.64;84.46
44131;BME280;29792;48.726;9.248;2023-02-24T13:00:17;95807.41;;;12.37;87.52
44131;BME280;29792;48.726;9.248;2023-02-24T13:02:53;95805.16;;;12.26;89.45
44131;BME280;29792;48.726;9.248;2023-02-24T13:05:28;95799.72;;;12.12;90.29
44131;BME280;29792;48.726;9.248;2023-02-24T13:13:51;95782.09;;;11.85;92.71
44131;BME280;29792;48.726;9.248;2023-02-24T13:16:28;95784.03;;;11.83;92.86
44131;BME280;29792;48.726;9.248;2023-02-24T13:19:03;95772.97;;;11.82;93.00
44131;BME280;29792;48.726;9.248;2023-02-24T13:21:29;95765.72;;;11.86;92.45
44131;BME280;29792;48.726;9.248;2023-02-24T13:23:57;95756.13;;;11.88;91.51
44131;BME280;29792;48.726;9.248;2023-02-24T13:26:24;95759.50;;;11.89;91.37
44131;BME280;29792;48.726;9.248;2023-02-24T13:29:02;95759.19;;;11.83;90.65
44131;BME280;29792;48.726;9.248;2023-02-24T13:31:42;95752.59;;;11.81;90.54
44131;BME280;29792;48.726;9.248;2023-02-24T13:36:54;95744.41;;;11.77;91.65
44131;BME280;29792;48.726;9.248;2023-02-24T13:39:34;95745.56;;;11.75;92.34
44131;BME280;29792;48.726;9.248;2023-02-24T13:42:02;95751.78;;;11.72;91.69
44131;BME280;29792;48.726;9.248;2023-02-24T13:44:28;95739.41;;;11.68;91.73
44131;BME280;29792;48.726;9.248;2023-02-24T13:52:40;95721.44;;;11.60;91.74
44131;BME280;29792;48.726;9.248;2023-02-24T13:58:06;95717.78;;;11.62;92.35
44131;BME280;29792;48.726;9.248;2023-02-24T14:00:39;95710.88;;;11.63;92.79
44131;BME280;29792;48.726;9.248;2023-02-24T14:03:11;95711.53;;;11.65;92.64
44131;BME280;29792;48.726;9.248;2023-02-24T14:05:42;95709.78;;;11.65;92.75
44131;BME280;29792;48.726;9.248;2023-02-24T14:08:17;95707.84;;;11.67;93.09
44131;BME280;29792;48.726;9.248;2023-02-24T14:10:45;95699.81;;;11.70;93.88
44131;BME280;29792;48.726;9.248;2023-02-24T14:13:16;95690.03;;;11.74;93.44
44131;BME280;29792;48.726;9.248;2023-02-24T14:15:44;95685.56;;;11.76;92.97
44131;BME280;29792;48.726;9.248;2023-02-24T14:18:23;95692.28;;;11.77;92.86
44131;BME280;29792;48.726;9.248;2023-02-24T14:20:51;95700.63;;;11.79;92.67
44131;BME280;29792;48.726;9.248;2023-02-24T14:23:28;95698.22;;;11.69;91.46